Time;durP1;ratioP1;P1;durP2;ratioP2;P2;SDS_P1;SDS_P2;PMS_P1;PMS_P2;Temp;Humidity;BMP_temperature;BMP_pressure;BME280_temperature;BME280_humidity;BME280_pressure;Samples;Min_cycle;Max_cycle;Signal;HPM_P1;HPM_P2
2022/04/04 00:00:33;;;;;;;6.53;2.67;;;;;;;1.43;70.75;101863.59;5035861;28;20223;-83
2022/04/04 00:02:59;;;;;;;5.10;3.00;;;;;;;1.43;70.96;101863.59;5034275;28;20130;-82
2022/04/04 00:05:24;;;;;;;4.80;3.13;;;;;;;1.42;71.00;101861.84;5031462;28;20025;-83
2022/04/04 00:07:49;;;;;;;5.20;3.07;;;;;;;1.42;70.96;101849.03;5031184;28;20392;-82
2022/04/04 00:10:15;;;;;;;6.33;3.07;;;;;;;1.40;70.84;101849.00;5014735;28;20151;-83
2022/04/04 00:12:40;;;;;;;5.07;3.03;;;;;;;1.39;71.35;101848.94;5035587;28;20026;-83
2022/04/04 00:15:06;;;;;;;7.53;3.50;;;;;;;1.39;71.24;101848.94;5037843;28;20085;-83
2022/04/04 00:17:31;;;;;;;6.50;3.57;;;;;;;1.40;70.80;101855.81;5036552;28;20025;-83
2022/04/04 00:19:56;;;;;;;6.53;3.93;;;;;;;1.37;70.92;101841.22;5032869;28;20391;-83
2022/04/04 00:22:22;;;;;;;6.33;3.83;;;;;;;1.36;71.30;101842.03;5031453;28;20029;-83
2022/04/04 00:24:47;;;;;;;6.23;3.77;;;;;;;1.36;70.77;101834.34;5032961;28;20025;-83
2022/04/04 00:27:12;;;;;;;6.23;4.00;;;;;;;1.34;71.05;101831.75;5035020;28;20060;-83
2022/04/04 00:29:37;;;;;;;7.30;4.63;;;;;;;1.33;71.28;101824.00;5035380;28;20036;-83
2022/04/04 00:32:03;;;;;;;7.67;4.40;;;;;;;1.32;71.36;101828.28;5036401;28;20417;-82
2022/04/04 00:34:28;;;;;;;8.30;4.70;;;;;;;1.31;71.10;101821.41;5036769;28;20528;-82
2022/04/04 00:36:55;;;;;;;7.73;4.50;;;;;;;1.30;71.08;101819.66;5031400;28;20104;-83
2022/04/04 00:39:20;;;;;;;7.77;4.70;;;;;;;1.29;70.80;101815.38;5032990;28;20029;-84
2022/04/04 00:41:47;;;;;;;7.70;4.90;;;;;;;1.29;71.42;101807.69;5034755;28;20033;-82
2022/04/04 00:44:12;;;;;;;8.80;5.00;;;;;;;1.26;71.73;101802.44;5039589;28;20025;-82
2022/04/04 00:46:42;;;;;;;11.47;5.23;;;;;;;1.25;71.49;101805.84;5033395;28;20036;-82
2022/04/04 00:49:08;;;;;;;8.73;4.90;;;;;;;1.24;71.57;101801.53;5030391;28;20021;-83
2022/04/04 00:51:34;;;;;;;8.70;4.93;;;;;;;1.23;71.62;101794.66;5031057;28;20024;-82
2022/04/04 00:53:59;;;;;;;10.97;5.40;;;;;;;1.22;71.54;101798.06;5030956;28;20057;-82
2022/04/04 00:56:27;;;;;;;8.30;5.23;;;;;;;1.23;71.19;101798.94;5033268;28;20032;-82
2022/04/04 00:58:52;;;;;;;8.47;4.87;;;;;;;1.21;71.58;101793.75;5030687;28;20488;-82
2022/04/04 01:01:18;;;;;;;7.67;5.07;;;;;;;1.19;71.23;101788.59;5031433;28;20053;-83
2022/04/04 01:03:43;;;;;;;8.70;5.00;;;;;;;1.19;71.55;101785.19;5030549;28;20481;-83
2022/04/04 01:06:08;;;;;;;10.53;5.33;;;;;;;1.17;70.86;101780.00;5033274;28;20032;-83
2022/04/04 01:08:33;;;;;;;9.47;5.50;;;;;;;1.18;71.21;101776.59;5034607;28;20041;-83
2022/04/04 01:10:59;;;;;;;8.40;5.17;;;;;;;1.16;71.33;101769.72;5032978;28;20049;-83
2022/04/04 01:13:24;;;;;;;7.90;5.33;;;;;;;1.14;70.86;101763.66;5038486;28;20040;-83
2022/04/04 01:15:50;;;;;;;8.37;5.67;;;;;;;1.13;71.13;101769.63;5011905;28;20057;-83
2022/04/04 01:18:16;;;;;;;8.00;5.47;;;;;;;1.13;71.03;101764.50;5031076;28;20029;-83
2022/04/04 01:20:41;;;;;;;10.03;5.80;;;;;;;1.12;71.66;101762.75;5029705;28;20030;-83
2022/04/04 01:23:07;;;;;;;9.37;5.77;;;;;;;1.09;71.39;101750.72;5029633;28;20033;-83
2022/04/04 01:25:37;;;;;;;9.60;5.83;;;;;;;1.10;71.66;101746.47;5029780;28;20151;-83
2022/04/04 01:28:03;;;;;;;10.30;6.20;;;;;;;1.10;71.39;101739.66;5028806;28;20124;-83
2022/04/04 01:30:29;;;;;;;10.20;5.27;;;;;;;1.09;71.24;101739.59;5029165;28;20091;-84
2022/04/04 01:32:55;;;;;;;8.97;5.20;;;;;;;1.09;70.91;101732.78;5033529;28;20500;-83
2022/04/04 01:35:21;;;;;;;10.70;5.53;;;;;;;1.09;71.16;101731.91;5029804;28;20391;-83
2022/04/04 01:37:47;;;;;;;8.30;5.10;;;;;;;1.09;71.19;101732.78;5036369;28;20036;-83
2022/04/04 01:40:12;;;;;;;8.30;4.90;;;;;;;1.09;70.59;101722.53;5020015;28;20036;-84
2022/04/04 01:42:39;;;;;;;10.23;5.47;;;;;;;1.09;70.82;101711.41;5041692;28;20037;-83
2022/04/04 01:45:08;;;;;;;8.40;5.07;;;;;;;1.07;70.52;101708.81;5035299;28;20037;-83
2022/04/04 01:47:34;;;;;;;8.00;4.80;;;;;;;1.08;70.77;101701.97;5033384;28;20025;-83
2022/04/04 01:50:00;;;;;;;10.50;5.57;;;;;;;1.06;70.42;101707.09;5033714;28;20177;-83
2022/04/04 01:52:25;;;;;;;9.87;5.47;;;;;;;1.05;70.77;101695.09;5040392;28;20025;-83
2022/04/04 01:54:51;;;;;;;10.63;5.60;;;;;;;1.05;70.33;101688.25;5037259;28;20058;-83
2022/04/04 01:57:16;;;;;;;9.73;5.67;;;;;;;1.04;70.27;101677.97;5034188;28;20025;-83
2022/04/04 01:59:41;;;;;;;9.40;5.30;;;;;;;1.05;70.12;101684.84;5038715;28;20191;-83
2022/04/04 02:02:07;;;;;;;9.83;5.63;;;;;;;1.03;70.77;101673.69;5037774;28;20055;-83
2022/04/04 02:04:32;;;;;;;10.30;5.90;;;;;;;1.02;70.40;101662.56;5041650;28;20439;-83
2022/04/04 02:06:57;;;;;;;10.70;5.20;;;;;;;0.99;70.37;101662.50;5049142;28;20033;-83
2022/04/04 02:09:23;;;;;;;10.37;5.60;;;;;;;0.99;70.45;101653.91;5034217;28;20029;-83
2022/04/04 02:11:48;;;;;;;10.93;5.60;;;;;;;0.98;69.99;101647.94;5023461;28;20511;-83
2022/04/04 02:14:15;;;;;;;8.87;5.40;;;;;;;0.98;70.59;101642.81;5016740;28;20112;-83
2022/04/04 02:16:40;;;;;;;9.90;5.87;;;;;;;1.02;70.00;101648.88;5039859;28;20033;-83
2022/04/04 02:19:05;;;;;;;9.07;5.17;;;;;;;1.05;69.43;101646.41;5039628;28;20112;-83
2022/04/04 02:21:31;;;;;;;10.07;5.57;;;;;;;1.06;69.58;101636.19;5040091;28;20033;-83
2022/04/04 02:23:56;;;;;;;8.70;5.10;;;;;;;1.10;69.58;101641.38;5032725;28;20033;-83
2022/04/04 02:26:21;;;;;;;10.67;6.10;;;;;;;1.13;69.29;101633.78;5041346;28;20021;-83
2022/04/04 02:28:46;;;;;;;8.07;4.97;;;;;;;1.14;69.54;101627.84;5042611;28;20045;-83
2022/04/04 02:31:12;;;;;;;9.07;5.20;;;;;;;1.16;69.31;101621.91;5038970;28;20028;-83
2022/04/04 02:33:37;;;;;;;10.20;5.53;;;;;;;1.20;69.47;101610.91;5032590;28;20042;-83
2022/04/04 02:36:04;;;;;;;9.10;5.20;;;;;;;1.23;69.41;101617.81;5031868;28;20223;-83
2022/04/04 02:38:29;;;;;;;8.97;5.43;;;;;;;1.29;69.30;101606.84;5032420;28;20181;-83
2022/04/04 02:40:56;;;;;;;9.13;5.20;;;;;;;1.30;69.70;101606.00;5035845;28;20021;-83
2022/04/04 02:43:22;;;;;;;8.23;4.77;;;;;;;1.33;69.21;101598.41;5039877;28;20060;-83
2022/04/04 02:45:48;;;;;;;10.63;4.93;;;;;;;1.37;69.49;101595.09;5016620;28;20021;-83
2022/04/04 02:48:15;;;;;;;7.77;4.80;;;;;;;1.39;69.29;101588.31;5039333;28;20100;-83
2022/04/04 02:50:41;;;;;;;8.40;4.97;;;;;;;1.41;68.85;101585.75;5032676;28;20025;-83
2022/04/04 02:53:06;;;;;;;9.30;4.80;;;;;;;1.42;69.47;101582.38;5034273;28;20060;-83
2022/04/04 02:58:15;;;;;;;8.37;4.67;;;;;;;1.47;69.15;101562.84;5036441;28;20044;-83
2022/04/04 03:00:41;;;;;;;8.00;4.70;;;;;;;1.50;68.88;101565.50;5032859;28;20104;-83
2022/04/04 03:03:06;;;;;;;7.00;4.33;;;;;;;1.51;69.00;101562.09;5042155;28;20028;-83
2022/04/04 03:05:32;;;;;;;12.47;5.37;;;;;;;1.54;69.36;101548.47;5034708;28;20117;-83
2022/04/04 03:07:57;;;;;;;10.20;5.13;;;;;;;1.58;69.25;101546.00;5037481;28;20128;-83
2022/04/04 03:10:23;;;;;;;7.40;4.80;;;;;;;1.56;69.60;101534.84;5034400;28;20037;-83
2022/04/04 03:12:50;;;;;;;7.83;4.67;;;;;;;1.59;69.20;101539.19;5036329;28;20032;-83
2022/04/04 03:15:19;;;;;;;9.33;4.70;;;;;;;1.62;68.89;101534.13;5033315;28;20032;-83
2022/04/04 03:17:47;;;;;;;6.73;4.60;;;;;;;1.62;69.06;101524.72;5019254;28;20416;-82
2022/04/04 03:20:14;;;;;;;8.67;5.40;;;;;;;1.62;69.60;101519.59;5036700;28;20382;-83
2022/04/04 03:22:43;;;;;;;7.90;4.80;;;;;;;1.61;69.07;101520.44;5032954;28;20051;-83
2022/04/04 03:25:10;;;;;;;8.90;4.87;;;;;;;1.63;69.59;101512.75;5033439;28;20037;-83
2022/04/04 03:27:36;;;;;;;7.93;4.53;;;;;;;1.62;69.61;101508.50;5032214;28;20119;-83
2022/04/04 03:30:07;;;;;;;7.77;4.70;;;;;;;1.62;69.30;101499.06;5034767;28;20025;-84
2022/04/04 03:32:33;;;;;;;8.80;4.60;;;;;;;1.63;69.46;101505.94;5039094;28;20033;-83
2022/04/04 03:34:59;;;;;;;8.87;4.73;;;;;;;1.65;69.49;101501.72;5032152;28;20473;-83
2022/04/04 03:37:24;;;;;;;9.20;4.63;;;;;;;1.66;70.00;101493.19;5031176;28;20029;-83
2022/04/04 03:39:50;;;;;;;8.77;4.33;;;;;;;1.67;69.82;101492.34;5031881;28;20028;-84
2022/04/04 03:42:16;;;;;;;7.53;4.47;;;;;;;1.67;69.98;101487.22;5031151;28;20534;-83
2022/04/04 03:44:41;;;;;;;7.03;4.50;;;;;;;1.69;69.57;101477.00;5037154;28;20035;-82
2022/04/04 03:47:07;;;;;;;9.83;4.80;;;;;;;1.70;69.90;101475.31;5032856;28;20037;-83
2022/04/04 03:49:32;;;;;;;7.80;4.87;;;;;;;1.71;70.09;101471.91;5032208;28;20380;-83
2022/04/04 03:51:57;;;;;;;7.30;4.40;;;;;;;1.72;69.80;101468.47;5031557;28;20105;-83
2022/04/04 03:54:23;;;;;;;9.60;4.70;;;;;;;1.74;69.84;101459.13;5032697;28;20025;-83
2022/04/04 03:56:48;;;;;;;8.77;4.70;;;;;;;1.73;70.12;101452.25;5030526;28;20047;-83
2022/04/04 03:59:13;;;;;;;8.30;4.77;;;;;;;1.75;69.88;101450.59;5015278;28;20025;-83
2022/04/04 04:01:40;;;;;;;8.23;4.80;;;;;;;1.76;70.09;101445.50;5034082;28;20075;-83
2022/04/04 04:04:05;;;;;;;8.50;4.70;;;;;;;1.78;69.83;101440.41;5032786;28;20496;-83
2022/04/04 04:06:33;;;;;;;8.33;4.90;;;;;;;1.81;70.24;101441.31;5032409;28;20033;-83
2022/04/04 04:08:58;;;;;;;9.50;4.50;;;;;;;1.81;69.79;101440.47;5016852;28;20096;-83
2022/04/04 04:11:24;;;;;;;8.47;5.10;;;;;;;1.83;70.32;101436.25;5038250;28;20116;-82
2022/04/04 04:13:50;;;;;;;7.97;4.67;;;;;;;1.80;70.57;101434.47;5032014;28;20020;-83
2022/04/04 04:16:16;;;;;;;9.77;5.40;;;;;;;1.80;70.46;101423.34;5034629;28;20025;-83
2022/04/04 04:18:42;;;;;;;9.00;5.13;;;;;;;1.81;70.48;101422.50;5031375;28;20385;-84
2022/04/04 04:21:09;;;;;;;9.73;5.53;;;;;;;1.82;70.62;101414.84;5034525;28;20040;-83
2022/04/04 04:23:36;;;;;;;11.77;5.20;;;;;;;1.84;70.64;101402.06;5030878;28;20095;-83
2022/04/04 04:26:02;;;;;;;8.40;4.87;;;;;;;1.85;70.42;101408.91;5031209;28;20481;-83
2022/04/04 04:28:27;;;;;;;10.40;5.00;;;;;;;1.86;70.35;101405.50;5030346;28;20082;-83
2022/04/04 04:30:52;;;;;;;7.87;4.33;;;;;;;1.85;70.54;101403.78;5031658;28;20025;-82
2022/04/04 04:33:18;;;;;;;9.77;5.20;;;;;;;1.86;70.88;101395.25;5031792;28;20172;-83
2022/04/04 04:35:43;;;;;;;9.07;5.30;;;;;;;1.86;70.70;101389.25;5031215;28;20104;-83
2022/04/04 04:38:08;;;;;;;11.27;5.90;;;;;;;1.87;71.17;101380.72;5030067;28;20384;-83
2022/04/04 04:40:34;;;;;;;9.73;5.57;;;;;;;1.87;70.94;101381.59;5029346;28;20075;-84
2022/04/04 04:43:00;;;;;;;10.07;5.27;;;;;;;1.88;70.80;101380.72;5012534;28;20025;-83
2022/04/04 04:45:26;;;;;;;9.90;5.73;;;;;;;1.89;70.78;101366.22;5028967;28;20048;-83
2022/04/04 04:47:51;;;;;;;9.07;5.20;;;;;;;1.89;71.05;101354.22;5030046;28;20068;-83
2022/04/04 04:50:19;;;;;;;9.90;5.90;;;;;;;1.91;71.29;101357.69;5030675;28;20025;-83
2022/04/04 04:52:46;;;;;;;10.47;5.53;;;;;;;1.88;71.00;101342.25;5028732;28;20440;-83
2022/04/04 04:55:12;;;;;;;10.63;5.53;;;;;;;1.91;71.16;101350.00;5036259;28;20017;-83
2022/04/04 04:57:38;;;;;;;9.73;5.00;;;;;;;1.92;71.40;101351.72;5028777;28;20431;-83
2022/04/04 05:00:06;;;;;;;11.33;5.83;;;;;;;1.90;71.41;101335.44;5030057;28;20100;-83
2022/04/04 05:02:31;;;;;;;9.73;5.23;;;;;;;1.93;71.33;101339.78;5028196;28;20156;-83
2022/04/04 05:04:57;;;;;;;8.67;5.37;;;;;;;1.91;71.45;101334.59;5031663;28;20112;-83
2022/04/04 05:07:23;;;;;;;9.87;5.70;;;;;;;1.97;71.57;101336.41;5030877;28;20053;-85
2022/04/04 05:09:48;;;;;;;10.00;6.00;;;;;;;1.99;71.57;101336.47;5029873;28;20021;-83
2022/04/04 05:12:13;;;;;;;9.33;6.23;;;;;;;1.99;71.58;101323.63;5036513;28;20035;-84
2022/04/04 05:14:42;;;;;;;10.13;6.00;;;;;;;2.01;71.63;101327.09;5033696;28;20037;-84
2022/04/04 05:17:08;;;;;;;10.43;5.83;;;;;;;2.03;71.61;101313.44;5033515;28;20033;-84
2022/04/04 05:19:34;;;;;;;11.10;6.60;;;;;;;2.07;71.76;101316.91;5016325;28;20030;-83
2022/04/04 05:22:00;;;;;;;13.00;6.20;;;;;;;2.07;71.71;101311.78;5043097;28;20114;-84
2022/04/04 05:24:27;;;;;;;10.50;6.27;;;;;;;2.11;71.79;101299.03;5035225;28;20033;-83
2022/04/04 05:26:53;;;;;;;11.07;6.30;;;;;;;2.13;71.69;101296.50;5035568;28;20029;-84
2022/04/04 05:29:18;;;;;;;11.37;6.50;;;;;;;2.15;71.77;101294.81;5035468;28;20021;-84
2022/04/04 05:31:47;;;;;;;11.63;6.07;;;;;;;2.19;72.01;101291.47;5034341;28;20021;-84
2022/04/04 05:34:12;;;;;;;10.17;5.97;;;;;;;2.22;71.51;101283.78;5034403;28;20045;-83
2022/04/04 05:36:39;;;;;;;10.97;6.43;;;;;;;2.25;71.64;101278.69;5034668;28;20052;-83
2022/04/04 05:39:06;;;;;;;10.60;6.03;;;;;;;2.31;71.50;101277.09;5034872;28;20044;-82
2022/04/04 05:41:32;;;;;;;12.23;6.83;;;;;;;2.31;71.72;101271.94;5039800;28;20102;-83
2022/04/04 05:43:57;;;;;;;12.00;6.57;;;;;;;2.36;71.57;101272.88;5035515;28;20029;-81
2022/04/04 05:46:23;;;;;;;11.57;6.43;;;;;;;2.40;71.30;101260.13;5036678;28;20029;-82
2022/04/04 05:48:49;;;;;;;11.50;6.80;;;;;;;2.45;71.38;101244.78;5035157;28;20021;-83
2022/04/04 05:51:16;;;;;;;11.60;7.03;;;;;;;2.48;71.44;101244.81;5033101;28;20477;-82
2022/04/04 05:53:42;;;;;;;12.13;6.93;;;;;;;2.50;71.36;101235.44;5017064;28;20028;-83
2022/04/04 05:56:07;;;;;;;11.30;6.17;;;;;;;2.56;71.22;101235.50;5033542;28;20029;-82
2022/04/04 05:58:33;;;;;;;12.00;6.63;;;;;;;2.63;71.07;101230.44;5032300;28;20083;-82
2022/04/04 06:00:58;;;;;;;11.13;6.70;;;;;;;2.64;70.67;101232.19;5032383;28;20120;-82
2022/04/04 06:03:24;;;;;;;12.27;7.07;;;;;;;2.71;70.97;101234.00;5034069;28;20253;-83
2022/04/04 06:05:50;;;;;;;10.83;6.07;;;;;;;2.75;70.97;101215.19;5040751;28;20110;-83
2022/04/04 06:08:16;;;;;;;12.27;7.10;;;;;;;2.75;71.12;101222.06;5043261;28;20060;-83
2022/04/04 06:10:45;;;;;;;10.77;6.10;;;;;;;2.79;70.87;101216.97;5034827;28;20021;-83
2022/04/04 06:13:12;;;;;;;10.93;6.43;;;;;;;2.81;70.65;101210.13;5015882;28;20041;-82
2022/04/04 06:15:38;;;;;;;12.33;6.10;;;;;;;2.93;70.29;101200.84;5033440;28;20064;-82
2022/04/04 06:18:04;;;;;;;12.20;7.80;;;;;;;2.91;70.31;101203.41;5015012;28;20049;-83
2022/04/04 06:20:29;;;;;;;15.00;6.20;;;;;;;2.98;70.08;101196.63;5016923;28;20024;-83
2022/04/04 06:22:55;;;;;;;13.17;7.40;;;;;;;2.98;70.25;101206.91;5032064;28;20384;-82
2022/04/04 06:25:21;;;;;;;12.27;6.53;;;;;;;3.04;69.89;101196.72;5037244;28;20029;-83
2022/04/04 06:27:47;;;;;;;11.20;6.60;;;;;;;3.09;69.99;101200.16;5037082;28;20025;-82
2022/04/04 06:30:13;;;;;;;13.17;7.27;;;;;;;3.15;70.14;101194.25;5035593;28;20447;-82
2022/04/04 06:32:45;;;;;;;14.57;6.97;;;;;;;3.23;69.44;101194.34;5031733;28;20025;-82
2022/04/04 06:35:13;;;;;;;;;;;;;;;3.31;69.21;101187.53;5033647;28;20037;-82
2022/04/04 06:37:39;;;;;;;10.90;6.67;;;;;;;3.34;69.12;101197.88;5032111;28;19913;-82
2022/04/04 06:40:05;;;;;;;11.70;6.93;;;;;;;3.36;68.76;101175.59;5033425;28;20485;-82
2022/04/04 06:42:39;;;;;;;13.13;7.20;;;;;;;3.42;68.43;101177.38;5032364;28;20151;-82
2022/04/04 06:45:06;;;;;;;11.00;6.77;;;;;;;3.42;68.33;101162.78;5043003;28;20059;-82
2022/04/04 06:47:32;;;;;;;12.77;7.07;;;;;;;3.46;68.22;101153.41;5017643;28;20095;-82
2022/04/04 06:49:58;;;;;;;13.30;6.93;;;;;;;3.52;68.11;101168.03;5032384;28;20057;-82
2022/04/04 06:52:23;;;;;;;12.63;7.00;;;;;;;3.52;68.35;101161.16;5037393;28;20472;-82
2022/04/04 06:54:49;;;;;;;10.97;5.97;;;;;;;3.60;67.53;101151.81;5036563;28;20142;-82
2022/04/04 06:57:16;;;;;;;14.37;7.63;;;;;;;3.58;68.09;101142.34;5036871;28;20495;-83
2022/04/04 06:59:42;;;;;;;9.90;6.17;;;;;;;3.63;68.04;101140.66;5034661;28;20168;-82
2022/04/04 07:02:08;;;;;;;12.10;6.70;;;;;;;3.64;67.69;101142.38;5032429;28;20540;-82
2022/04/04 07:04:34;;;;;;;15.77;7.30;;;;;;;3.66;67.60;101135.53;5032921;28;20105;-82
2022/04/04 07:06:59;;;;;;;10.85;6.15;;;;;;;3.72;67.46;101127.88;5033003;28;20104;-82
2022/04/04 07:09:24;;;;;;;12.73;6.80;;;;;;;3.74;67.56;101128.75;5032106;28;20107;-82
2022/04/04 07:11:51;;;;;;;11.70;6.67;;;;;;;3.83;67.06;101120.25;5032816;28;20026;-82
2022/04/04 07:14:17;;;;;;;10.88;6.88;;;;;;;3.86;67.58;101111.66;5032178;28;20068;-82
2022/04/04 07:16:42;;;;;;;12.17;7.27;;;;;;;3.92;67.36;101106.56;5032109;28;20518;-83
2022/04/04 07:19:09;;;;;;;12.23;6.90;;;;;;;3.99;66.99;101099.75;5032586;28;20037;-82
2022/04/04 07:21:35;;;;;;;12.00;6.70;;;;;;;3.99;66.65;101113.47;5014686;28;20037;-82
2022/04/04 07:24:00;;;;;;;10.63;7.07;;;;;;;4.03;66.71;101092.03;5034088;28;20060;-83
2022/04/04 07:26:26;;;;;;;12.87;6.60;;;;;;;4.09;66.45;101088.63;5031529;28;20090;-83
2022/04/04 07:28:52;;;;;;;10.75;6.25;;;;;;;4.12;66.40;101091.22;5032399;28;20053;-82
2022/04/04 07:31:17;;;;;;;11.27;7.00;;;;;;;4.19;66.26;101077.50;5014401;28;20026;-83
2022/04/04 07:33:43;;;;;;;12.43;6.60;;;;;;;4.23;65.92;101076.66;5031602;28;20072;-83
2022/04/04 07:36:10;;;;;;;18.23;7.13;;;;;;;4.30;65.89;101077.56;5031859;28;20040;-82
2022/04/04 07:38:35;;;;;;;11.03;7.00;;;;;;;4.33;65.29;101071.56;5014471;28;20030;-83
2022/04/04 07:41:00;;;;;;;10.45;6.68;;;;;;;4.34;65.68;101069.00;5032906;28;20037;-83
2022/04/04 07:43:26;;;;;;;9.85;6.15;;;;;;;4.39;65.02;101067.31;5032231;28;20029;-83
2022/04/04 07:45:52;;;;;;;12.65;6.63;;;;;;;4.43;65.51;101069.91;5032262;28;20029;-82
2022/04/04 07:48:17;;;;;;;9.27;6.10;;;;;;;4.49;65.00;101075.94;5013972;28;20029;-83
2022/04/04 07:50:44;;;;;;;13.40;6.70;;;;;;;4.57;64.18;101060.50;5014674;28;20026;-83
2022/04/04 07:53:10;;;;;;;9.50;5.78;;;;;;;4.62;64.63;101069.06;5031900;28;20025;-83
2022/04/04 07:55:36;;;;;;;11.93;6.05;;;;;;;4.68;64.09;101056.22;5031440;28;20052;-83
2022/04/04 07:58:02;;;;;;;14.55;6.90;;;;;;;4.73;63.96;101045.06;5013323;28;20498;-82
2022/04/04 08:00:28;;;;;;;10.93;6.22;;;;;;;4.75;64.27;101043.34;5013687;28;20053;-83
2022/04/04 08:02:54;;;;;;;14.35;6.50;;;;;;;4.84;63.69;101038.19;5031364;28;20025;-82
2022/04/04 08:05:19;;;;;;;12.38;6.65;;;;;;;4.86;64.03;101028.75;5031601;28;20104;-83
2022/04/04 08:07:47;;;;;;;11.30;6.13;;;;;;;4.90;63.78;101027.91;5031456;28;20113;-83
2022/04/04 08:10:13;;;;;;;10.88;6.20;;;;;;;4.95;63.63;101021.00;5013927;28;20029;-83
2022/04/04 08:12:38;;;;;;;10.48;6.45;;;;;;;4.96;63.20;101022.72;5031304;28;20385;-83
2022/04/04 08:15:04;;;;;;;9.60;6.53;;;;;;;5.02;63.38;101009.00;5013971;28;20040;-82
2022/04/04 08:17:30;;;;;;;10.02;6.63;;;;;;;5.04;63.61;101003.81;5031286;28;20029;-83
2022/04/04 08:19:56;;;;;;;12.48;6.18;;;;;;;5.06;63.43;100986.63;5032543;28;20544;-81
2022/04/04 08:22:22;;;;;;;11.55;6.43;;;;;;;5.10;63.54;100993.53;5034247;28;20112;-81
2022/04/04 08:24:49;;;;;;;12.05;6.82;;;;;;;5.13;63.58;100989.22;5013588;28;20362;-82
2022/04/04 08:27:14;;;;;;;11.30;6.75;;;;;;;5.12;63.89;100995.22;5030118;28;20025;-82
2022/04/04 08:29:40;;;;;;;10.90;6.20;;;;;;;5.18;63.83;100976.31;5031457;28;20088;-81
2022/04/04 08:32:06;;;;;;;12.55;7.03;;;;;;;5.26;63.52;100972.00;5031499;28;20029;-82
2022/04/04 08:34:31;;;;;;;13.35;6.65;;;;;;;5.30;63.50;100960.81;5030910;28;20041;-83
2022/04/04 08:36:57;;;;;;;11.10;6.65;;;;;;;5.34;63.42;100960.81;5031617;28;20087;-81
2022/04/04 08:39:23;;;;;;;12.10;6.55;;;;;;;5.40;63.26;100961.63;5042983;28;20033;-82
2022/04/04 08:41:48;;;;;;;10.20;6.55;;;;;;;5.44;62.92;100947.03;5051290;28;20021;-82
2022/04/04 08:44:16;;;;;;;10.77;6.68;;;;;;;5.48;62.86;100948.72;5032889;28;20522;-82
2022/04/04 08:46:43;;;;;;;19.27;7.28;;;;;;;5.57;62.77;100938.38;5030031;28;20052;-82
2022/04/04 08:49:08;;;;;;;11.07;6.72;;;;;;;5.62;62.31;100931.50;5029711;28;20045;-83
2022/04/04 08:51:35;;;;;;;10.27;6.50;;;;;;;5.69;61.79;100932.31;5029580;28;20017;-82
2022/04/04 08:54:01;;;;;;;12.38;6.20;;;;;;;5.74;62.22;100929.72;5029981;28;20033;-82
2022/04/04 08:56:27;;;;;;;11.55;6.05;;;;;;;5.77;61.84;100914.22;5011783;28;20026;-83
2022/04/04 08:58:53;;;;;;;11.45;5.60;;;;;;;5.86;61.21;100933.97;5031349;28;20487;-83
2022/04/04 09:01:20;;;;;;;13.40;6.32;;;;;;;5.89;60.18;100914.16;5030957;28;20063;-85
2022/04/04 09:04:11;;;;;;;10.02;5.25;;;;;;;5.98;60.51;100920.16;5032450;28;20033;-83
2022/04/04 09:06:51;;;;;;;17.10;6.03;;;;;;;5.92;60.24;100924.47;5028117;28;20056;-83
2022/04/04 09:09:37;;;;;;;16.88;5.95;;;;;;;5.96;60.70;100898.63;5045013;28;20449;-83
2022/04/04 09:12:11;;;;;;;10.60;5.45;;;;;;;6.02;59.94;100903.78;5044028;28;20104;-83
2022/04/04 09:14:42;;;;;;;14.02;5.78;;;;;;;6.00;59.88;100902.91;5030106;28;20018;-83
2022/04/04 09:17:08;;;;;;;10.35;6.20;;;;;;;5.98;59.98;100912.41;5013847;28;20032;-83
2022/04/04 09:19:34;;;;;;;11.07;6.10;;;;;;;5.97;60.52;100915.84;5035083;28;20460;-83
2022/04/04 09:22:19;;;;;;;10.82;6.82;;;;;;;5.90;60.66;100892.63;5030928;28;20065;-83
2022/04/04 09:24:59;;;;;;;15.20;5.93;;;;;;;6.00;61.19;100902.91;5013450;28;20017;-83
2022/04/04 09:27:36;;;;;;;18.27;6.45;;;;;;;5.95;60.98;100891.75;5031027;28;20068;-82
2022/04/04 09:30:04;;;;;;;11.60;5.55;;;;;;;5.95;61.20;100902.91;5030098;28;20053;-82
2022/04/04 09:32:41;;;;;;;16.05;6.35;;;;;;;5.87;61.97;100890.06;5030935;28;20029;-82
2022/04/04 09:35:13;;;;;;;18.77;6.28;;;;;;;5.87;62.99;100884.91;5029894;28;20512;-82
2022/04/04 09:37:41;;;;;;;12.10;6.22;;;;;;;5.90;63.41;100878.84;5013382;28;20022;-83
2022/04/04 09:40:15;;;;;;;10.10;5.95;;;;;;;5.86;64.13;100883.19;5030579;28;20483;-83
2022/04/04 09:42:43;;;;;;;10.02;6.00;;;;;;;5.86;64.49;100885.75;5013321;28;20389;-84
2022/04/04 09:45:13;;;;;;;14.10;6.55;;;;;;;5.81;64.99;100874.59;5038353;28;20037;-83
2022/04/04 09:47:56;;;;;;;15.95;6.82;;;;;;;5.76;65.69;100874.63;5033495;28;20473;-83
2022/04/04 09:50:32;;;;;;;12.18;6.90;;;;;;;5.74;65.63;100872.94;5029055;28;20022;-82
2022/04/04 09:52:58;;;;;;;13.35;6.82;;;;;;;5.67;66.54;100860.91;5042490;28;20036;-83
2022/04/04 09:55:28;;;;;;;12.50;6.80;;;;;;;5.61;66.56;100883.31;5040655;28;20473;-83
2022/04/04 09:57:56;;;;;;;11.45;6.88;;;;;;;5.60;66.79;100866.13;5029137;28;20024;-83
2022/04/04 10:00:22;;;;;;;13.02;6.97;;;;;;;5.55;67.01;100857.53;5041470;28;20212;-83
2022/04/04 10:02:48;;;;;;;14.52;6.53;;;;;;;5.55;66.85;100862.69;5037180;28;20208;-82
2022/04/04 10:05:14;;;;;;;14.05;7.28;;;;;;;5.50;67.76;100855.84;5039140;28;20036;-83
2022/04/04 10:07:40;;;;;;;14.68;7.50;;;;;;;5.50;69.14;100858.41;5047981;28;20031;-83
2022/04/04 10:10:06;;;;;;;10.35;7.28;;;;;;;5.49;68.64;100856.69;5015692;28;20034;-83
2022/04/04 10:12:35;;;;;;;13.10;7.53;;;;;;;5.45;68.76;100840.38;5036941;28;20094;-83
2022/04/04 10:15:03;;;;;;;13.73;7.13;;;;;;;5.45;69.55;100851.53;5033911;28;20159;-83
2022/04/04 10:17:30;;;;;;;12.82;7.05;;;;;;;5.43;70.21;100836.94;5017487;28;20033;-82
2022/04/04 10:19:57;;;;;;;13.10;7.75;;;;;;;5.39;70.52;100841.25;5039099;28;20060;-83
2022/04/04 10:22:23;;;;;;;16.92;7.95;;;;;;;5.37;71.78;100836.97;5037377;28;20021;-83
2022/04/04 10:24:50;;;;;;;11.18;7.15;;;;;;;5.40;71.34;100837.78;5032634;28;20080;-82
2022/04/04 10:27:20;;;;;;;13.30;7.43;;;;;;;5.44;71.36;100831.75;5038757;28;20036;-83
2022/04/04 10:29:47;;;;;;;12.25;7.50;;;;;;;5.48;70.88;100822.28;5015386;28;20104;-83
2022/04/04 10:32:24;;;;;;;12.55;7.07;;;;;;;5.51;70.30;100835.16;5035572;28;20032;-82
2022/04/04 10:34:49;;;;;;;13.05;7.03;;;;;;;5.51;71.18;100835.16;5031984;28;20041;-82
2022/04/04 10:37:14;;;;;;;12.95;6.85;;;;;;;5.50;71.60;100822.28;5032148;28;20056;-82
2022/04/04 10:39:45;;;;;;;13.65;7.00;;;;;;;5.50;71.64;100822.28;5034525;28;20049;-82
2022/04/04 10:42:32;;;;;;;13.00;7.50;;;;;;;5.58;71.68;100857.50;5030839;28;20038;-82
2022/04/04 10:45:18;;;;;;;14.88;7.72;;;;;;;5.44;72.30;100815.44;5032927;28;20040;-83
2022/04/04 10:47:44;;;;;;;12.95;7.80;;;;;;;5.44;73.47;100818.03;5031231;28;20021;-83
2022/04/04 10:50:20;;;;;;;12.75;7.70;;;;;;;5.36;73.64;100814.59;5032068;28;20040;-83
2022/04/04 10:52:46;;;;;;;13.07;7.50;;;;;;;5.34;74.16;100818.91;5031556;28;20534;-83
2022/04/04 10:55:36;;;;;;;14.93;8.07;;;;;;;5.32;74.23;100806.88;5031773;28;20048;-83
2022/04/04 10:58:12;;;;;;;12.85;8.15;;;;;;;5.32;74.86;100808.63;5031371;28;20117;-82
2022/04/04 11:01:07;;;;;;;12.20;7.32;;;;;;;5.36;75.20;100801.72;5030109;28;20197;-82
2022/04/04 11:03:35;;;;;;;13.63;8.33;;;;;;;5.29;76.51;100799.19;5031362;28;20021;-83
2022/04/04 11:09:02;;;;;;;14.32;8.65;;;;;;;5.31;77.09;100781.09;5033634;28;20111;-84
2022/04/04 11:11:42;;;;;;;14.25;7.97;;;;;;;5.32;76.53;100793.97;5033306;28;20029;-84
2022/04/04 11:14:08;;;;;;;10.57;7.50;;;;;;;5.31;77.10;100787.09;5031123;28;20061;-84
2022/04/04 11:20:32;;;;;;;12.95;7.50;;;;;;;5.22;78.13;100776.84;5031107;28;20084;-85
2022/04/04 11:22:55;;;;;;;11.05;7.05;;;;;;;5.23;77.96;100781.13;5028014;28;20048;-85
2022/04/04 11:25:21;;;;;;;10.38;6.55;;;;;;;5.22;78.25;100771.69;5031339;28;20040;-84
2022/04/04 11:27:48;;;;;;;10.05;6.93;;;;;;;5.21;78.10;100772.53;5013729;28;20013;-83
2022/04/04 11:30:27;;;;;;;12.77;6.87;;;;;;;5.20;78.61;100778.56;5031245;28;20028;-83
2022/04/04 11:32:57;;;;;;;10.70;7.43;;;;;;;5.14;79.03;100769.16;5010089;28;20405;-84
2022/04/04 11:35:32;;;;;;;10.50;6.30;;;;;;;5.18;78.87;100780.28;5010710;28;20084;-83
2022/04/04 11:38:07;;;;;;;11.65;7.03;;;;;;;5.09;78.87;100770.03;5012836;28;20057;-84